sensor_id;sensor_type;location;lat;lon;timestamp;pressure;altitude;pressure_sealevel;temperature;humidity
71565;BME280;59397;50.952;14.502;2024-02-23T00:14:33;945.98;;;9.67;100.00
71565;BME280;59397;50.952;14.502;2024-02-23T00:34:05;946.33;;;9.50;100.00
71565;BME280;59397;50.952;14.502;2024-02-23T00:53:40;946.51;;;9.68;100.00
71565;BME280;59397;50.952;14.502;2024-02-23T01:13:13;946.74;;;9.69;100.00
71565;BME280;59397;50.952;14.502;2024-02-23T01:32:46;946.39;;;9.37;100.00
71565;BME280;59397;50.952;14.502;2024-02-23T01:52:20;947.05;;;9.44;100.00
71565;BME280;59397;50.952;14.502;2024-02-23T02:11:54;947.29;;;9.42;100.00
71565;BME280;59397;50.952;14.502;2024-02-23T02:31:28;947.42;;;9.39;100.00
71565;BME280;59397;50.952;14.502;2024-02-23T02:51:02;947.97;;;9.50;100.00
71565;BME280;59397;50.952;14.502;2024-02-23T03:29:51;948.24;;;9.45;100.00
71565;BME280;59397;50.952;14.502;2024-02-23T03:49:24;948.99;;;9.00;100.00
71565;BME280;59397;50.952;14.502;2024-02-23T04:08:58;949.51;;;9.02;100.00
71565;BME280;59397;50.952;14.502;2024-02-23T04:28:31;950.09;;;8.76;100.00
71565;BME280;59397;50.952;14.502;2024-02-23T04:48:05;950.36;;;8.74;100.00
71565;BME280;59397;50.952;14.502;2024-02-23T05:07:40;950.55;;;8.63;100.00
71565;BME280;59397;50.952;14.502;2024-02-23T05:27:12;951.18;;;8.03;98.94
71565;BME280;59397;50.952;14.502;2024-02-23T05:46:48;951.47;;;7.71;100.00
71565;BME280;59397;50.952;14.502;2024-02-23T06:06:19;951.64;;;7.36;100.00
71565;BME280;59397;50.952;14.502;2024-02-23T06:25:52;952.12;;;7.08;85.69
71565;BME280;59397;50.952;14.502;2024-02-23T06:45:26;952.53;;;6.87;83.17
71565;BME280;59397;50.952;14.502;2024-02-23T07:05:03;952.55;;;7.25;81.84
71565;BME280;59397;50.952;14.502;2024-02-23T07:24:39;952.48;;;7.61;83.68
71565;BME280;59397;50.952;14.502;2024-02-23T07:44:12;953.14;;;7.58;83.01
71565;BME280;59397;50.952;14.502;2024-02-23T08:03:46;953.30;;;7.62;78.99
71565;BME280;59397;50.952;14.502;2024-02-23T08:23:21;953.77;;;7.75;75.77
71565;BME280;59397;50.952;14.502;2024-02-23T08:42:54;953.92;;;7.71;72.10
71565;BME280;59397;50.952;14.502;2024-02-23T09:02:30;953.92;;;8.92;73.85
71565;BME280;59397;50.952;14.502;2024-02-23T09:22:05;954.20;;;8.12;74.42
71565;BME280;59397;50.952;14.502;2024-02-23T09:41:38;954.27;;;7.96;74.18
71565;BME280;59397;50.952;14.502;2024-02-23T10:01:14;954.25;;;8.75;74.10
71565;BME280;59397;50.952;14.502;2024-02-23T10:20:47;954.03;;;8.08;75.41
71565;BME280;59397;50.952;14.502;2024-02-23T10:40:24;954.16;;;9.30;68.05
71565;BME280;59397;50.952;14.502;2024-02-23T10:59:58;954.20;;;9.29;72.80
71565;BME280;59397;50.952;14.502;2024-02-23T11:19:33;954.81;;;8.97;72.94
71565;BME280;59397;50.952;14.502;2024-02-23T11:39:05;954.80;;;9.74;67.48
71565;BME280;59397;50.952;14.502;2024-02-23T11:58:42;954.66;;;9.82;67.12
71565;BME280;59397;50.952;14.502;2024-02-23T12:18:11;954.83;;;8.83;70.62
71565;BME280;59397;50.952;14.502;2024-02-23T12:37:44;954.77;;;8.28;69.09
71565;BME280;59397;50.952;14.502;2024-02-23T12:57:22;954.73;;;8.92;72.65
71565;BME280;59397;50.952;14.502;2024-02-23T13:16:57;954.87;;;8.71;71.47
71565;BME280;59397;50.952;14.502;2024-02-23T13:36:32;954.77;;;9.23;73.43
71565;BME280;59397;50.952;14.502;2024-02-23T13:56:05;954.95;;;9.04;69.77
71565;BME280;59397;50.952;14.502;2024-02-23T14:15:36;954.83;;;9.09;69.73
71565;BME280;59397;50.952;14.502;2024-02-23T14:35:11;955.12;;;7.79;72.98
71565;BME280;59397;50.952;14.502;2024-02-23T14:54:45;955.01;;;8.19;73.89
71565;BME280;59397;50.952;14.502;2024-02-23T15:14:19;954.90;;;7.85;77.46
71565;BME280;59397;50.952;14.502;2024-02-23T15:33:50;955.02;;;7.44;80.54
71565;BME280;59397;50.952;14.502;2024-02-23T15:53:24;955.04;;;7.44;82.85
71565;BME280;59397;50.952;14.502;2024-02-23T16:12:57;954.75;;;6.79;88.33
71565;BME280;59397;50.952;14.502;2024-02-23T16:32:29;955.47;;;6.32;93.80
71565;BME280;59397;50.952;14.502;2024-02-23T16:52:03;955.60;;;6.59;93.77
71565;BME280;59397;50.952;14.502;2024-02-23T17:11:37;955.81;;;6.68;93.55
71565;BME280;59397;50.952;14.502;2024-02-23T17:31:11;955.62;;;5.95;100.00
71565;BME280;59397;50.952;14.502;2024-02-23T17:50:46;955.68;;;5.83;96.69
71565;BME280;59397;50.952;14.502;2024-02-23T18:10:19;955.70;;;5.78;98.92
71565;BME280;59397;50.952;14.502;2024-02-23T18:29:54;955.62;;;6.05;96.62
71565;BME280;59397;50.952;14.502;2024-02-23T18:49:26;955.52;;;5.64;98.08
71565;BME280;59397;50.952;14.502;2024-02-23T19:08:58;955.49;;;4.95;100.00
71565;BME280;59397;50.952;14.502;2024-02-23T19:28:30;955.70;;;4.69;100.00
71565;BME280;59397;50.952;14.502;2024-02-23T19:48:05;955.91;;;5.28;100.00
71565;BME280;59397;50.952;14.502;2024-02-23T20:07:38;955.77;;;4.85;100.00
71565;BME280;59397;50.952;14.502;2024-02-23T20:27:11;955.69;;;5.01;100.00
71565;BME280;59397;50.952;14.502;2024-02-23T20:46:46;955.54;;;5.28;100.00
71565;BME280;59397;50.952;14.502;2024-02-23T21:06:19;955.65;;;5.15;100.00
71565;BME280;59397;50.952;14.502;2024-02-23T21:25:52;955.76;;;4.42;100.00
71565;BME280;59397;50.952;14.502;2024-02-23T21:45:21;955.52;;;4.80;100.00
71565;BME280;59397;50.952;14.502;2024-02-23T22:04:55;955.27;;;4.12;100.00
71565;BME280;59397;50.952;14.502;2024-02-23T22:24:29;955.41;;;4.25;100.00
71565;BME280;59397;50.952;14.502;2024-02-23T22:44:05;955.33;;;4.55;100.00
71565;BME280;59397;50.952;14.502;2024-02-23T23:03:37;955.11;;;4.53;100.00
71565;BME280;59397;50.952;14.502;2024-02-23T23:23:12;955.32;;;4.66;100.00
71565;BME280;59397;50.952;14.502;2024-02-23T23:42:47;955.26;;;5.01;100.00
